createdAt,value
2018-06-04T00:02:08.675Z,22.10
2018-06-04T00:04:42.767Z,22.20
2018-06-04T00:07:16.926Z,21.80
2018-06-04T00:09:51.085Z,22.20
2018-06-04T00:12:26.224Z,22.20
2018-06-04T00:15:00.290Z,22.10
2018-06-04T00:17:34.374Z,21.80
2018-06-04T00:22:48.954Z,21.40
2018-06-04T00:25:23.417Z,21.30
2018-06-04T00:27:57.722Z,21.30
2018-06-04T00:30:32.273Z,21.40
2018-06-04T00:33:06.318Z,21.20
2018-06-04T00:35:40.340Z,20.90
2018-06-04T00:38:14.508Z,20.90
2018-06-04T00:40:49.261Z,21.00
2018-06-04T00:43:23.757Z,20.90
2018-06-04T00:45:57.790Z,21.00
2018-06-04T00:48:31.991Z,21.20
2018-06-04T00:51:06.159Z,21.30
2018-06-04T00:53:40.403Z,21.20
2018-06-04T00:56:18.418Z,20.70
2018-06-04T00:58:52.635Z,20.70
2018-06-04T01:01:26.947Z,20.60
2018-06-04T01:04:01.021Z,20.90
2018-06-04T01:06:35.378Z,20.70
2018-06-04T01:09:09.366Z,20.60
2018-06-04T01:11:43.465Z,20.80
2018-06-04T01:14:17.528Z,20.60
2018-06-04T01:16:51.697Z,20.30
2018-06-04T01:19:26.670Z,20.20
2018-06-04T01:22:01.667Z,20.20
2018-06-04T01:24:36.127Z,20.20
2018-06-04T01:27:10.442Z,20.30
2018-06-04T01:29:45.327Z,20.50
2018-06-04T01:32:19.898Z,20.50
2018-06-04T01:34:54.855Z,20.40
2018-06-04T01:37:28.854Z,20.40
2018-06-04T01:40:03.074Z,20.20
2018-06-04T01:42:37.232Z,20.20
2018-06-04T01:45:11.351Z,20.40
2018-06-04T01:47:46.045Z,20.30
2018-06-04T01:50:20.137Z,20.30
2018-06-04T01:52:54.120Z,20.20
2018-06-04T01:55:28.311Z,20.20
2018-06-04T01:58:02.326Z,20.00
2018-06-04T02:00:36.463Z,20.10
2018-06-04T02:03:10.634Z,20.00
2018-06-04T02:05:44.717Z,19.90
2018-06-04T02:08:18.854Z,20.30
2018-06-04T02:10:52.751Z,20.10
2018-06-04T02:13:26.865Z,19.80
2018-06-04T02:16:00.918Z,19.50
2018-06-04T02:18:34.998Z,19.60
2018-06-04T02:21:09.065Z,19.70
2018-06-04T02:23:43.254Z,19.90
2018-06-04T02:26:17.246Z,19.80
2018-06-04T02:28:51.380Z,19.90
2018-06-04T02:31:25.307Z,19.90
2018-06-04T02:33:59.210Z,19.50
2018-06-04T02:36:34.030Z,19.60
2018-06-04T02:39:08.155Z,19.60
2018-06-04T02:41:42.262Z,19.70
2018-06-04T02:44:17.047Z,19.60
2018-06-04T02:46:51.166Z,19.60
2018-06-04T02:49:26.030Z,19.30
2018-06-04T02:52:07.242Z,19.30
2018-06-04T02:54:41.267Z,19.40
2018-06-04T02:57:15.335Z,19.40
2018-06-04T02:59:49.333Z,19.50
2018-06-04T03:02:23.467Z,19.40
2018-06-04T03:04:57.506Z,19.00
2018-06-04T03:07:31.615Z,19.20
2018-06-04T03:10:05.672Z,19.20
2018-06-04T03:12:39.727Z,19.00
2018-06-04T03:15:13.800Z,18.90
2018-06-04T03:17:48.576Z,19.10
2018-06-04T03:20:22.441Z,19.10
2018-06-04T03:22:56.482Z,19.00
2018-06-04T03:25:30.522Z,18.70
2018-06-04T03:28:04.510Z,18.80
2018-06-04T03:30:38.602Z,18.80
2018-06-04T03:33:12.617Z,18.60
2018-06-04T03:35:46.681Z,18.60
2018-06-04T03:38:20.760Z,18.70
2018-06-04T03:40:54.779Z,18.90
2018-06-04T03:43:28.889Z,18.80
2018-06-04T03:46:03.704Z,18.80
2018-06-04T03:48:37.551Z,18.80
2018-06-04T03:51:11.616Z,18.80
2018-06-04T03:53:45.635Z,18.60
2018-06-04T03:56:19.680Z,18.70
2018-06-04T03:58:53.633Z,18.80
2018-06-04T04:01:27.683Z,18.80
2018-06-04T04:04:01.767Z,18.90
2018-06-04T04:06:35.894Z,18.80
2018-06-04T04:09:09.929Z,18.70
2018-06-04T04:11:43.970Z,18.70
2018-06-04T04:14:18.057Z,18.70
2018-06-04T04:16:52.152Z,18.70
2018-06-04T04:19:26.261Z,18.60
2018-06-04T04:22:00.274Z,18.70
2018-06-04T04:24:34.312Z,18.60
2018-06-04T04:27:09.157Z,19.00
2018-06-04T04:29:43.094Z,18.90
2018-06-04T04:32:17.117Z,19.00
2018-06-04T04:34:51.763Z,19.00
2018-06-04T04:37:25.691Z,19.00
2018-06-04T04:39:59.783Z,19.10
2018-06-04T04:42:33.633Z,19.40
2018-06-04T04:45:08.459Z,18.80
2018-06-04T04:47:42.401Z,18.80
2018-06-04T04:50:16.470Z,19.00
2018-06-04T04:52:50.557Z,19.00
2018-06-04T04:55:24.605Z,19.10
2018-06-04T04:57:58.677Z,18.90
2018-06-04T05:00:32.705Z,18.70
2018-06-04T05:03:07.437Z,19.10
2018-06-04T05:05:41.337Z,19.00
2018-06-04T05:08:15.369Z,19.20
2018-06-04T05:10:50.252Z,19.10
2018-06-04T05:13:24.157Z,19.00
2018-06-04T05:15:58.124Z,19.00
2018-06-04T05:18:32.731Z,19.40
2018-06-04T05:21:06.698Z,19.40
2018-06-04T05:23:41.457Z,19.30
2018-06-04T05:26:15.453Z,19.30
2018-06-04T05:28:49.494Z,19.30
2018-06-04T05:31:23.590Z,19.40
2018-06-04T05:33:57.668Z,19.40
2018-06-04T05:36:31.717Z,19.50
2018-06-04T05:39:05.872Z,19.30
2018-06-04T05:41:39.897Z,19.30
2018-06-04T05:44:13.995Z,19.40
2018-06-04T05:46:48.109Z,19.50
2018-06-04T05:49:22.236Z,19.60
2018-06-04T05:51:56.345Z,19.70
2018-06-04T05:54:30.263Z,19.60
2018-06-04T05:57:04.378Z,19.80
2018-06-04T05:59:38.457Z,20.00
2018-06-04T06:02:12.517Z,19.90
2018-06-04T06:04:47.229Z,20.10
2018-06-04T06:07:21.366Z,20.10
2018-06-04T06:09:55.462Z,20.10
2018-06-04T06:12:30.270Z,20.30
2018-06-04T06:15:04.426Z,20.30
2018-06-04T06:17:38.393Z,20.30
2018-06-04T06:20:13.197Z,20.50
2018-06-04T06:22:47.285Z,20.50
2018-06-04T06:25:21.461Z,20.50
2018-06-04T06:27:55.566Z,20.60
2018-06-04T06:30:29.701Z,20.60
2018-06-04T06:33:03.802Z,20.70
2018-06-04T06:35:38.535Z,20.80
2018-06-04T06:38:12.623Z,20.80
2018-06-04T06:40:46.782Z,20.90
2018-06-04T06:43:20.845Z,20.90
2018-06-04T06:45:54.868Z,20.90
2018-06-04T06:48:29.015Z,21.10
2018-06-04T06:51:03.130Z,21.20
2018-06-04T06:53:37.227Z,21.30
2018-06-04T06:56:12.060Z,21.40
2018-06-04T06:58:46.166Z,21.40
2018-06-04T07:01:20.221Z,21.40
2018-06-04T07:03:54.257Z,21.30
2018-06-04T07:06:28.238Z,21.50
2018-06-04T07:09:02.398Z,21.60
2018-06-04T07:11:36.551Z,21.70
2018-06-04T07:14:10.675Z,21.80
2018-06-04T07:16:44.730Z,21.70
2018-06-04T07:19:18.788Z,21.70
2018-06-04T07:21:52.811Z,21.80
2018-06-04T07:24:26.866Z,21.90
2018-06-04T07:27:00.916Z,22.00
2018-06-04T07:29:35.837Z,22.10
2018-06-04T07:32:09.943Z,22.10
2018-06-04T07:34:44.041Z,22.00
2018-06-04T07:37:18.076Z,22.20
2018-06-04T07:39:52.166Z,22.10
2018-06-04T07:42:26.276Z,22.10
2018-06-04T07:45:00.346Z,22.10
2018-06-04T07:47:34.397Z,22.30
2018-06-04T07:50:08.482Z,22.30
2018-06-04T07:52:42.617Z,22.40
2018-06-04T07:55:16.666Z,22.40
2018-06-04T07:57:50.757Z,22.40
2018-06-04T08:00:24.875Z,22.40
2018-06-04T08:02:58.976Z,22.60
2018-06-04T08:05:33.825Z,22.70
2018-06-04T08:08:07.963Z,22.70
2018-06-04T08:10:42.054Z,23.10
2018-06-04T08:13:16.901Z,22.80
2018-06-04T08:15:50.983Z,22.80
2018-06-04T08:18:25.110Z,22.80
2018-06-04T08:20:59.167Z,23.00
2018-06-04T08:23:33.172Z,23.20
2018-06-04T08:26:07.281Z,23.20
2018-06-04T08:28:41.237Z,23.30
2018-06-04T08:31:15.292Z,23.30
2018-06-04T08:33:49.380Z,23.30
2018-06-04T08:36:23.484Z,23.50
2018-06-04T08:38:57.581Z,23.50
2018-06-04T08:41:31.623Z,23.60
2018-06-04T08:44:05.762Z,23.60
2018-06-04T08:46:40.587Z,23.50
2018-06-04T08:49:14.651Z,23.50
2018-06-04T08:51:48.819Z,23.80
2018-06-04T08:54:22.886Z,24.10
2018-06-04T08:56:56.969Z,24.20
2018-06-04T08:59:31.106Z,24.00
2018-06-04T09:02:05.221Z,23.90
2018-06-04T09:04:39.146Z,23.90
2018-06-04T09:07:13.257Z,24.10
2018-06-04T09:09:47.328Z,24.00
2018-06-04T09:12:22.131Z,24.40
2018-06-04T09:14:56.234Z,24.30
2018-06-04T09:17:30.257Z,24.30
2018-06-04T09:20:04.325Z,24.40
2018-06-04T09:22:39.221Z,24.70
2018-06-04T09:25:14.142Z,24.50
2018-06-04T09:27:48.198Z,24.50
2018-06-04T09:30:22.240Z,24.80
2018-06-04T09:32:56.983Z,24.90
2018-06-04T09:35:31.065Z,24.90
2018-06-04T09:38:05.106Z,24.90
2018-06-04T09:40:39.201Z,25.10
2018-06-04T09:43:14.022Z,25.00
2018-06-04T09:45:48.129Z,25.00
2018-06-04T09:48:22.250Z,25.30
2018-06-04T09:50:56.362Z,25.10
2018-06-04T09:53:30.389Z,25.20
2018-06-04T09:56:04.310Z,25.10
2018-06-04T09:58:38.210Z,25.40
2018-06-04T10:01:12.315Z,25.50
2018-06-04T10:03:46.300Z,25.50
2018-06-04T10:06:20.357Z,25.50
2018-06-04T10:08:54.426Z,25.50
2018-06-04T10:11:28.481Z,25.20
2018-06-04T10:14:02.587Z,25.40
2018-06-04T10:16:36.677Z,25.60
2018-06-04T10:19:10.665Z,25.70
2018-06-04T10:21:44.659Z,25.50
2018-06-04T10:24:19.557Z,25.70
2018-06-04T10:26:53.634Z,25.70
2018-06-04T10:29:27.698Z,26.10
2018-06-04T10:32:01.770Z,26.20
2018-06-04T10:34:35.820Z,26.20
2018-06-04T10:37:09.719Z,26.30
2018-06-04T10:39:43.835Z,26.20
2018-06-04T10:42:17.766Z,26.10
2018-06-04T10:44:51.857Z,25.90
2018-06-04T10:47:25.850Z,26.40
2018-06-04T10:49:59.805Z,26.60
2018-06-04T10:52:33.857Z,26.40
2018-06-04T10:55:07.907Z,26.60
2018-06-04T10:57:41.835Z,26.40
2018-06-04T11:00:15.904Z,26.60
2018-06-04T11:02:49.992Z,27.00
2018-06-04T11:05:23.891Z,26.70
2018-06-04T11:07:57.937Z,27.10
2018-06-04T11:10:31.986Z,27.40
2018-06-04T11:13:06.808Z,27.80
2018-06-04T11:15:40.882Z,27.80
2018-06-04T11:18:14.801Z,28.00
2018-06-04T11:20:48.786Z,27.70
2018-06-04T11:23:22.842Z,28.30
2018-06-04T11:25:57.055Z,28.60
2018-06-04T11:28:31.014Z,28.70
2018-06-04T11:31:05.777Z,28.30
2018-06-04T11:33:39.881Z,28.30
2018-06-04T11:36:14.006Z,28.00
2018-06-04T11:38:48.094Z,27.90
2018-06-04T11:41:22.200Z,28.00
2018-06-04T11:43:56.376Z,28.20
2018-06-04T11:46:30.333Z,28.20
2018-06-04T11:49:04.453Z,28.20
2018-06-04T11:51:38.553Z,28.20
2018-06-04T11:54:12.586Z,28.10
2018-06-04T11:56:46.718Z,28.10
2018-06-04T11:59:20.765Z,28.30
2018-06-04T12:01:55.522Z,28.00
2018-06-04T12:04:29.530Z,28.00
2018-06-04T12:07:04.397Z,28.10
2018-06-04T12:09:38.474Z,28.10
2018-06-04T12:12:12.520Z,28.20
2018-06-04T12:14:46.585Z,28.20
2018-06-04T12:17:20.701Z,28.40
2018-06-04T12:19:54.717Z,28.50
2018-06-04T12:22:28.734Z,28.50
2018-06-04T12:25:02.777Z,28.30
2018-06-04T12:27:36.758Z,28.30
2018-06-04T12:30:10.848Z,28.40
2018-06-04T12:32:44.937Z,28.10
2018-06-04T12:35:18.977Z,28.20
2018-06-04T12:37:52.998Z,28.30
2018-06-04T12:40:27.027Z,28.40
2018-06-04T12:43:01.061Z,28.40
2018-06-04T12:45:35.756Z,28.30
2018-06-04T12:48:09.772Z,28.30
2018-06-04T12:50:43.877Z,28.40
2018-06-04T12:53:17.960Z,28.50
2018-06-04T12:55:52.010Z,28.70
2018-06-04T12:58:26.022Z,28.80
2018-06-04T13:01:00.104Z,29.20
2018-06-04T13:03:34.138Z,29.40
2018-06-04T13:06:08.211Z,29.50
2018-06-04T13:08:42.272Z,29.50
2018-06-04T13:11:17.321Z,29.90
2018-06-04T13:13:51.232Z,29.80
2018-06-04T13:16:25.299Z,29.80
2018-06-04T13:18:59.418Z,29.60
2018-06-04T13:21:33.579Z,29.40
2018-06-04T13:24:07.592Z,29.60
2018-06-04T13:26:41.688Z,29.50
2018-06-04T13:29:15.785Z,29.80
2018-06-04T13:31:49.897Z,29.70
2018-06-04T13:34:23.978Z,29.80
2018-06-04T13:36:57.996Z,29.90
2018-06-04T13:39:32.052Z,29.70
2018-06-04T13:42:06.045Z,30.00
2018-06-04T13:44:40.113Z,30.10
2018-06-04T13:47:14.055Z,30.10
2018-06-04T13:49:48.184Z,30.40
2018-06-04T13:52:22.069Z,30.30
2018-06-04T13:54:56.081Z,30.20
2018-06-04T13:57:30.205Z,30.00
2018-06-04T14:00:04.329Z,29.90
2018-06-04T14:02:39.267Z,30.10
2018-06-04T14:05:13.332Z,30.10
2018-06-04T14:07:47.309Z,30.10
2018-06-04T14:10:21.453Z,30.00
2018-06-04T14:12:55.601Z,30.40
2018-06-04T14:15:29.685Z,30.40
2018-06-04T14:18:04.417Z,29.60
2018-06-04T14:20:39.292Z,29.50
2018-06-04T14:23:13.363Z,29.50
2018-06-04T14:25:47.347Z,29.40
2018-06-04T14:28:21.438Z,29.70
2018-06-04T14:30:55.465Z,30.00
2018-06-04T14:33:30.313Z,30.00
2018-06-04T14:36:04.214Z,30.00
2018-06-04T14:38:38.290Z,29.90
2018-06-04T14:41:12.382Z,30.10
2018-06-04T14:43:46.415Z,30.30
2018-06-04T14:46:20.527Z,31.40
2018-06-04T14:48:55.410Z,34.70
2018-06-04T14:51:30.225Z,35.30
2018-06-04T14:54:04.330Z,35.30
2018-06-04T14:56:38.541Z,36.20
2018-06-04T14:59:12.563Z,35.60
2018-06-04T15:01:46.608Z,35.70
2018-06-04T15:04:20.726Z,32.80
2018-06-04T15:06:54.815Z,31.40
2018-06-04T15:09:29.645Z,31.50
2018-06-04T15:12:03.694Z,31.50
2018-06-04T15:14:37.750Z,33.20
2018-06-04T15:17:11.865Z,31.10
2018-06-04T15:19:45.856Z,31.00
2018-06-04T15:22:19.968Z,34.40
2018-06-04T15:24:54.001Z,35.10
2018-06-04T15:27:28.080Z,35.30
2018-06-04T15:30:02.199Z,35.10
2018-06-04T15:32:46.573Z,35.80
2018-06-04T15:35:20.481Z,36.50
2018-06-04T15:37:55.427Z,36.60
2018-06-04T15:40:29.524Z,36.60
2018-06-04T15:43:03.678Z,36.20
2018-06-04T15:45:37.640Z,34.50
2018-06-04T15:48:11.585Z,34.40
2018-06-04T15:50:45.680Z,36.10
2018-06-04T15:53:19.794Z,36.50
2018-06-04T15:55:53.890Z,36.50
2018-06-04T15:58:27.946Z,36.60
2018-06-04T16:01:02.038Z,36.00
2018-06-04T16:03:36.229Z,36.60
2018-06-04T16:06:10.288Z,35.70
2018-06-04T16:08:44.436Z,36.00
2018-06-04T16:11:18.510Z,37.20
2018-06-04T16:13:52.585Z,36.60
2018-06-04T16:16:26.613Z,35.90
2018-06-04T16:19:01.471Z,36.10
2018-06-04T16:21:35.627Z,36.10
2018-06-04T16:24:09.695Z,36.30
2018-06-04T16:26:43.763Z,35.90
2018-06-04T16:29:18.593Z,35.10
2018-06-04T16:31:53.362Z,36.60
2018-06-04T16:34:28.221Z,36.20
2018-06-04T16:37:02.121Z,36.10
2018-06-04T16:39:36.820Z,35.70
2018-06-04T16:42:10.884Z,35.70
2018-06-04T16:44:44.900Z,36.10
2018-06-04T16:47:18.912Z,35.50
2018-06-04T16:49:52.913Z,35.10
2018-06-04T16:52:26.933Z,34.60
2018-06-04T16:55:00.965Z,35.00
2018-06-04T16:57:35.082Z,35.50
2018-06-04T17:00:08.996Z,34.80
2018-06-04T17:02:43.661Z,35.40
2018-06-04T17:05:17.746Z,35.40
2018-06-04T17:07:51.709Z,34.00
2018-06-04T17:10:26.361Z,35.10
2018-06-04T17:13:00.456Z,35.10
2018-06-04T17:15:34.428Z,34.10
2018-06-04T17:18:08.320Z,35.00
2018-06-04T17:20:42.291Z,35.70
2018-06-04T17:23:16.285Z,35.40
2018-06-04T17:25:50.352Z,35.00
2018-06-04T17:28:24.340Z,34.60
2018-06-04T17:30:58.404Z,35.30
2018-06-04T17:33:32.455Z,34.60
2018-06-04T17:36:06.384Z,34.40
2018-06-04T17:38:41.196Z,34.80
2018-06-04T17:41:15.123Z,34.80
2018-06-04T17:43:49.134Z,35.40
2018-06-04T17:46:23.201Z,35.10
2018-06-04T17:48:57.301Z,35.40
2018-06-04T17:51:31.357Z,34.90
2018-06-04T17:54:05.422Z,34.40
2018-06-04T17:56:39.485Z,34.70
2018-06-04T17:59:14.099Z,34.90
2018-06-04T18:01:48.832Z,34.70
2018-06-04T18:04:22.740Z,34.70
2018-06-04T18:06:56.824Z,34.10
2018-06-04T18:09:30.869Z,34.70
2018-06-04T18:12:04.953Z,34.40
2018-06-04T18:14:39.080Z,34.70
2018-06-04T18:17:13.169Z,34.70
2018-06-04T18:19:47.234Z,34.30
2018-06-04T18:22:21.283Z,33.40
2018-06-04T18:24:55.277Z,33.60
2018-06-04T18:27:29.358Z,33.40
2018-06-04T18:30:03.364Z,33.10
2018-06-04T18:32:38.221Z,32.40
2018-06-04T18:35:12.302Z,32.30
2018-06-04T18:37:46.206Z,31.70
2018-06-04T18:40:20.230Z,31.90
2018-06-04T18:42:54.235Z,31.50
2018-06-04T18:45:28.352Z,31.40
2018-06-04T18:48:02.381Z,30.90
2018-06-04T18:50:36.538Z,30.60
2018-06-04T18:53:10.598Z,30.20
2018-06-04T18:55:44.716Z,30.30
2018-06-04T18:58:18.756Z,30.10
2018-06-04T19:00:52.687Z,30.20
2018-06-04T19:03:26.579Z,30.10
2018-06-04T19:06:00.696Z,29.70
2018-06-04T19:08:34.795Z,29.40
2018-06-04T19:11:08.897Z,29.60
2018-06-04T19:13:43.014Z,29.60
2018-06-04T19:16:17.794Z,29.30
2018-06-04T19:18:52.686Z,29.40
2018-06-04T19:21:26.833Z,29.30
2018-06-04T19:24:00.728Z,28.90
2018-06-04T19:26:35.637Z,29.00
2018-06-04T19:29:09.757Z,29.00
2018-06-04T19:31:43.853Z,29.00
2018-06-04T19:34:17.956Z,28.90
2018-06-04T19:36:52.083Z,29.10
2018-06-04T19:39:26.200Z,28.70
2018-06-04T19:42:00.344Z,29.10
2018-06-04T19:44:34.535Z,28.50
2018-06-04T19:47:09.546Z,28.10
2018-06-04T19:49:43.741Z,28.10
2018-06-04T19:52:19.134Z,28.20
2018-06-04T19:54:54.600Z,28.10
2018-06-04T19:57:28.690Z,28.00
2018-06-04T20:00:02.806Z,28.00
2018-06-04T20:02:36.721Z,27.70
2018-06-04T20:05:10.702Z,27.70
2018-06-04T20:07:45.186Z,27.90
2018-06-04T20:10:19.258Z,27.70
2018-06-04T20:12:53.232Z,27.70
2018-06-04T20:15:27.814Z,27.60
2018-06-04T20:18:01.812Z,27.50
2018-06-04T20:20:35.801Z,27.70
2018-06-04T20:23:09.915Z,27.50
2018-06-04T20:25:44.029Z,27.50
2018-06-04T20:28:18.198Z,27.80
2018-06-04T20:30:52.254Z,27.50
2018-06-04T20:33:27.162Z,27.30
2018-06-04T20:36:01.831Z,27.30
2018-06-04T20:38:36.041Z,27.30
2018-06-04T20:41:10.433Z,27.40
2018-06-04T20:43:44.542Z,27.20
2018-06-04T20:46:18.556Z,27.20
2018-06-04T20:48:52.781Z,27.20
2018-06-04T20:51:26.889Z,27.00
2018-06-04T20:54:00.897Z,27.00
2018-06-04T20:56:35.053Z,27.20
2018-06-04T20:59:09.089Z,26.80
2018-06-04T21:01:43.125Z,26.40
2018-06-04T21:04:17.144Z,26.50
2018-06-04T21:06:52.279Z,26.30
2018-06-04T21:09:27.113Z,26.40
2018-06-04T21:12:01.424Z,26.40
2018-06-04T21:14:35.444Z,26.30
2018-06-04T21:17:09.573Z,26.10
2018-06-04T21:19:43.620Z,26.10
2018-06-04T21:22:18.461Z,25.70
2018-06-04T21:24:53.102Z,25.70
2018-06-04T21:27:27.097Z,25.40
2018-06-04T21:30:01.173Z,25.70
2018-06-04T21:32:35.273Z,25.40
2018-06-04T21:35:09.374Z,25.40
2018-06-04T21:37:43.350Z,25.50
2018-06-04T21:40:17.496Z,25.30
2018-06-04T21:42:51.608Z,25.30
2018-06-04T21:45:26.553Z,25.20
2018-06-04T21:48:00.621Z,25.20
2018-06-04T21:50:34.584Z,25.10
2018-06-04T21:53:08.629Z,24.90
2018-06-04T21:55:42.717Z,25.00
2018-06-04T21:58:16.760Z,24.80
2018-06-04T22:00:51.450Z,24.70
2018-06-04T22:03:25.602Z,24.70
2018-06-04T22:05:59.697Z,24.30
2018-06-04T22:08:33.718Z,24.50
2018-06-04T22:11:07.780Z,24.70
2018-06-04T22:13:41.893Z,24.60
2018-06-04T22:16:16.038Z,24.40
2018-06-04T22:18:50.173Z,24.50
2018-06-04T22:21:24.214Z,24.50
2018-06-04T22:23:58.289Z,24.30
2018-06-04T22:26:32.422Z,24.40
2018-06-04T22:29:06.537Z,24.10
2018-06-04T22:31:40.625Z,24.20
2018-06-04T22:34:15.363Z,23.90
2018-06-04T22:36:49.453Z,23.90
2018-06-04T22:39:23.572Z,23.90
2018-06-04T22:41:57.461Z,24.00
2018-06-04T22:44:31.581Z,23.80
2018-06-04T22:47:05.748Z,23.70
2018-06-04T22:49:39.835Z,23.70
2018-06-04T22:52:14.645Z,23.80
2018-06-04T22:54:48.739Z,23.80
2018-06-04T22:57:22.675Z,23.90
2018-06-04T22:59:57.569Z,23.70
2018-06-04T23:02:31.712Z,23.70
2018-06-04T23:05:05.850Z,23.70
2018-06-04T23:07:39.894Z,23.70
2018-06-04T23:10:14.053Z,23.80
2018-06-04T23:12:48.090Z,23.70
2018-06-04T23:15:22.805Z,23.30
2018-06-04T23:17:56.901Z,23.30
2018-06-04T23:20:30.877Z,23.30
2018-06-04T23:23:04.993Z,23.10
2018-06-04T23:25:39.045Z,23.20
2018-06-04T23:28:13.877Z,23.10
2018-06-04T23:30:47.953Z,23.10
2018-06-04T23:33:22.115Z,23.20
2018-06-04T23:35:56.090Z,23.00
2018-06-04T23:38:30.150Z,23.00
2018-06-04T23:41:04.205Z,22.80
2018-06-04T23:43:38.376Z,23.10
2018-06-04T23:46:13.093Z,22.80
2018-06-04T23:48:47.184Z,22.80
2018-06-04T23:51:21.304Z,22.90
2018-06-04T23:53:55.414Z,22.80
2018-06-04T23:56:29.555Z,22.80
2018-06-04T23:59:03.522Z,22.60
